Latest Weather Observations for Blackall

IDQ60801

Issued at 10:02 am EST Saturday 23 September 2017 (issued every 30 minutes, with the page automatically refreshed every 10 minutes)

About weather observations | Map of weather stations | Latest weather observations for QLD | Other Formats
Station Details ID: 036034 Name: BLACKALL AIRPORT Lat: -24.43 Lon: 145.43 Height: 281.3 m
Data from the previous 72 hours. | See also: Recent months at Blackall
Date/Time
EST
Temp
°C
App
Temp
°C
Dew
Point
°C
Rel
Hum
%
Delta-T
°C
Wind Press
QNH
hPa
Press
MSL
hPa
Rain since
9am
mm
Dir  Spd
km/h
Gust
km/h
Spd
kts
Gust
kts
23/10:00am 29.6 24.7 11.2 32 10.7 N 28 39 15 21 1016.1 1015.1 0.0
23/09:30am 28.9 24.1 11.5 34 10.1 N 28 35 15 19 1016.4 1015.4 0.0
23/09:00am 27.0 22.9 11.5 38 9.0 N 24 32 13 17 1016.6 1015.6 0.0
23/08:30am 26.0 22.3 12.8 44 7.8 N 24 33 13 18 1016.6 1015.6 0.0
23/08:00am 23.8 20.4 12.4 48 6.6 NNE 22 30 12 16 1016.6 1015.6 0.0
23/07:30am 22.5 20.0 12.2 52 5.9 NNE 17 22 9 12 1016.2 1015.2 0.0
23/07:00am 20.0 17.8 9.3 50 5.7 NNE 11 15 6 8 1015.9 1014.9 0.0
23/06:30am 18.1 15.7 6.9 48 5.7 NE 9 11 5 6 1015.6 1014.6 0.0
23/06:00am 17.9 15.4 6.4 47 5.8 NNE 9 13 5 7 1015.2 1014.2 0.0
23/05:30am 18.3 15.6 5.8 44 6.2 N 9 13 5 7 1014.9 1013.9 0.0
23/05:00am 18.3 15.5 5.2 42 6.4 NE 9 13 5 7 1014.4 1013.3 0.0
23/04:30am 18.2 14.6 2.9 36 7.2 NE 11 13 6 7 1014.0 1013.0 0.0
23/04:00am 17.7 13.4 1.2 33 7.4 NE 13 17 7 9 1013.7 1012.7 0.0
23/03:30am 18.2 13.9 0.8 31 7.8 NE 13 15 7 8 1013.6 1012.6 0.0
23/03:00am 17.4 14.0 -0.8 29 7.8 NE 7 9 4 5 1013.8 1012.8 0.0
23/02:30am 19.0 14.3 0.6 29 8.3 NE 15 17 8 9 1013.8 1012.8 0.0
23/02:00am 19.4 15.6 -0.6 26 8.8 NE 9 15 5 8 1013.8 1012.8 0.0
23/01:30am 19.4 15.2 -1.1 25 8.9 NE 11 15 6 8 1013.8 1012.8 0.0
23/01:00am 19.2 15.2 -2.4 23 9.2 NE 9 11 5 6 1014.2 1013.1 0.0
23/12:30am 20.1 16.1 -2.3 22 9.6 NE 9 15 5 8 1014.3 1013.2 0.0
23/12:00am 20.9 16.6 -1.6 22 9.8 NE 11 13 6 7 1014.3 1013.2 0.0
 
Date/Time
EST
Temp
°C
App
Temp
°C
Dew
Point
°C
Rel
Hum
%
Delta-T
°C
Wind Press
QNH
hPa
Press
MSL
hPa
Rain since
9am
mm
Dir  Spd
km/h
Gust
km/h
Spd
kts
Gust
kts
22/11:30pm 21.3 17.4 -1.3 22 10.0 NE 9 11 5 6 1014.4 1013.3 0.0
22/11:00pm 19.7 16.2 -1.4 24 9.2 NE 7 9 4 5 1014.6 1013.5 0.0
22/10:30pm 20.1 16.1 -2.3 22 9.6 ENE 9 11 5 6 1014.4 1013.3 0.0
22/10:00pm 21.8 17.7 -2.8 19 10.6 NE 9 9 5 5 1014.5 1013.4 0.0
22/09:30pm 21.4 17.5 -1.8 21 10.2 NE 9 9 5 5 1014.3 1013.2 0.0
22/09:00pm 21.0 17.4 -2.1 21 10.0 NE 7 9 4 5 1014.2 1013.1 0.0
22/08:30pm 21.3 17.6 -3.2 19 10.4 E 7 9 4 5 1013.9 1012.9 0.0
22/08:00pm 22.6 19.1 -2.9 18 11.0 ENE 6 6 3 3 1013.6 1012.6 0.0
22/07:30pm 24.4 20.9 -3.0 16 12.0 NE 6 7 3 4 1013.3 1012.3 0.0
22/07:00pm 26.6 24.2 -3.1 14 13.3 CALM 0 0 0 0 1013.0 1012.0 0.0
22/06:30pm 28.8 26.1 -5.8 10 15.0 CALM 0 0 0 0 1012.8 1011.8 0.0
22/06:00pm 32.1 29.1 -4.7 9 16.7 E 2 6 1 3 1012.5 1011.5 0.0
22/05:30pm 34.0 30.3 -4.9 8 17.8 S 6 9 3 5 1012.3 1011.3 0.0
22/05:00pm 34.6 30.9 -4.4 8 18.1 SSE 6 11 3 6 1012.2 1011.2 0.0
22/04:30pm 34.6 30.9 -4.4 8 18.1 SSW 6 9 3 5 1012.1 1011.1 0.0
22/04:00pm 35.1 31.4 -4.1 8 18.4 NNW 6 13 3 7 1012.0 1011.0 0.0
22/03:30pm 35.6 31.4 -3.7 8 18.6 NW 9 22 5 12 1012.3 1011.3 0.0
22/03:00pm 35.4 30.8 -3.8 8 18.5 ENE 11 22 6 12 1012.3 1011.3 0.0
22/02:30pm 35.5 30.4 -2.2 9 18.3 W 15 24 8 13 1012.9 1011.9 0.0
22/02:00pm 34.2 29.7 -3.2 9 17.7 NNW 11 20 6 11 1013.3 1012.3 0.0
22/01:30pm 33.9 29.2 -2.0 10 17.3 NNW 13 30 7 16 1013.7 1012.7 0.0
22/01:00pm 33.6 28.8 -2.2 10 17.1 N 13 22 7 12 1014.0 1013.0 0.0
22/12:30pm 33.5 27.7 0.2 12 16.5 NNW 20 30 11 16 1014.5 1013.4 0.0
22/12:00pm 32.9 27.1 -0.2 12 16.3 N 20 35 11 19 1015.1 1014.1 0.0
22/11:30am 32.0 25.7 -0.9 12 15.9 N 22 35 12 19 1015.6 1014.6 0.0
22/11:00am 31.8 26.0 0.0 13 15.6 NNW 20 32 11 17 1016.1 1015.1 0.0
22/10:30am 30.2 24.1 2.5 17 14.0 NNW 24 32 13 17 1016.5 1015.5 0.0
22/10:00am 29.5 23.4 2.7 18 13.5 NNW 24 35 13 19 1016.7 1015.7 0.0
22/09:30am 28.5 22.5 3.4 20 12.8 N 24 33 13 18 1017.0 1016.0 0.0
22/09:00am 27.4 22.2 3.8 22 12.0 N 20 28 11 15 1016.9 1015.9 0.0
22/08:30am 25.3 18.6 3.9 25 10.7 N 28 37 15 20 1016.7 1015.7 0.0
22/08:00am 23.8 18.4 2.6 25 10.3 N 20 30 11 16 1016.7 1015.7 0.0
22/07:58am 23.5 18.4 2.9 26 10.0 N 19 30 10 16 1016.6 1015.6 0.0
22/07:30am 18.5 15.0 -3.0 23 8.9 NNE 6 7 3 4 1016.4 1015.4 0.0
22/07:00am 14.9 10.9 -6.0 23 7.9 NNE 7 9 4 5 1015.8 1014.8 0.0
22/06:30am 10.4 6.4 -7.3 28 6.1 NE 6 7 3 4 1015.3 1014.3 0.0
22/06:00am 10.5 7.5 -9.2 24 6.5 CALM 0 0 0 0 1014.9 1013.9 0.0
22/05:30am 11.8 8.0 -9.2 22 7.1 NE 4 7 2 4 1014.6 1013.5 0.0
22/05:00am 12.8 6.9 -9.6 20 7.6 NE 15 20 8 11 1014.5 1013.4 0.0
22/04:30am 10.9 7.1 -6.0 30 6.1 ENE 6 7 3 4 1013.8 1012.8 0.0
22/04:00am 10.6 6.6 -7.6 27 6.3 ESE 6 7 3 4 1013.5 1012.5 0.0
22/03:30am 11.9 7.8 -8.5 23 7.0 SW 6 9 3 5 1013.5 1012.5 0.0
22/03:00am 11.9 7.3 -8.5 23 7.0 W 9 11 5 6 1013.5 1012.5 0.0
22/02:30am 11.9 8.6 -8.0 24 6.9 W 2 9 1 5 1013.5 1012.5 0.0
22/02:00am 13.0 8.8 -7.6 23 7.3 S 7 7 4 4 1013.8 1012.8 0.0
22/01:30am 13.7 9.5 -7.6 22 7.6 SE 7 7 4 4 1013.9 1012.9 0.0
22/01:00am 13.5 10.3 -7.2 23 7.5 SSE 2 7 1 4 1014.3 1013.2 0.0
22/12:30am 13.8 9.9 -6.9 23 7.5 SSE 6 9 3 5 1014.3 1013.2 0.0
22/12:00am 14.4 10.3 -7.0 22 7.8 SSE 7 9 4 5 1014.4 1013.3 0.0
 
Date/Time
EST
Temp
°C
App
Temp
°C
Dew
Point
°C
Rel
Hum
%
Delta-T
°C
Wind Press
QNH
hPa
Press
MSL
hPa
Rain since
9am
mm
Dir  Spd
km/h
Gust
km/h
Spd
kts
Gust
kts
21/11:30pm 15.1 11.3 -5.9 23 7.9 ESE 6 7 3 4 1014.4 1013.3 0.0
21/11:00pm 15.6 12.8 -6.6 21 8.3 CALM 0 2 0 1 1014.4 1013.3 0.0
21/10:30pm 16.3 12.8 -6.7 20 8.7 NNW 4 6 2 3 1014.4 1013.3 0.0
21/10:00pm 17.3 14.2 -6.5 19 9.1 SSW 2 6 1 3 1014.0 1013.0 0.0
21/09:30pm 17.4 14.1 -8.6 16 9.5 W 2 6 1 3 1013.8 1012.8 0.0
21/09:00pm 19.2 15.0 -7.2 16 10.2 WSW 7 9 4 5 1013.6 1012.6 0.0
21/08:30pm 20.5 16.3 -7.9 14 10.9 SW 7 9 4 5 1013.3 1012.3 0.0
21/08:00pm 21.6 17.2 -10.1 11 11.8 WSW 7 9 4 5 1013.1 1012.1 0.0
21/07:30pm 24.3 20.1 -10.6 9 13.3 W 6 7 3 4 1012.8 1011.8 0.0
21/07:00pm 26.9 22.1 -10.1 8 14.6 WNW 9 11 5 6 1012.3 1011.3 0.0
21/06:30pm 29.1 24.7 -10.2 7 15.8 NW 7 9 4 5 1011.9 1010.9 0.0
21/06:00pm 31.5 26.3 -10.4 6 17.2 WNW 11 17 6 9 1011.6 1010.6 0.0
21/05:30pm 32.7 27.2 -9.5 6 17.7 WNW 13 22 7 12 1011.4 1010.3 0.0
21/05:00pm 33.4 26.8 -9.0 6 18.1 WNW 19 30 10 16 1011.3 1010.2 0.0
21/04:30pm 33.9 27.7 -8.7 6 18.3 NW 17 32 9 17 1011.2 1010.1 0.0
21/04:00pm 33.9 27.7 -8.7 6 18.4 NW 17 24 9 13 1011.1 1010.0 0.0
21/03:30pm 34.3 27.6 -8.4 6 18.5 NW 20 33 11 18 1011.2 1010.1 0.0
21/03:00pm 34.8 28.7 -8.0 6 18.8 NNW 17 37 9 20 1011.6 1010.6 0.0
21/02:30pm 34.3 27.6 -8.4 6 18.5 NW 20 30 11 16 1011.9 1010.9 0.0
21/02:00pm 33.5 26.9 -9.0 6 18.2 NNW 19 43 10 23 1012.2 1011.2 0.0
21/01:30pm 34.4 27.7 -8.3 6 18.6 NW 20 35 11 19 1012.8 1011.8 0.0
21/01:00pm 33.5 26.0 -9.0 6 18.1 NNW 24 41 13 22 1013.2 1012.2 0.0
21/12:30pm 33.0 26.6 -7.3 7 17.6 NNW 19 32 10 17 1013.7 1012.7 0.0
21/12:00pm 33.0 26.0 -7.3 7 17.6 NW 22 39 12 21 1014.4 1013.3 0.0
21/11:30am 32.6 26.5 -7.6 7 17.4 NW 17 32 9 17 1015.0 1014.0 0.0
21/11:00am 31.5 25.3 -8.4 7 16.9 NNW 17 26 9 14 1015.5 1014.5 0.0
21/10:30am 31.3 25.7 -6.8 8 16.6 N 15 24 8 13 1015.9 1014.9 0.0
21/10:00am 30.2 24.3 -6.1 9 15.8 N 17 24 9 13 1016.3 1015.3 0.0
21/09:30am 28.7 23.0 -7.3 9 15.2 NNE 15 20 8 11 1016.5 1015.5 0.0
21/09:00am 26.8 21.6 -6.1 11 13.9 NE 13 19 7 10 1016.5 1015.5 0.0
21/08:30am 23.6 18.4 -6.4 13 12.3 NE 13 19 7 10 1016.6 1015.6 0.0
21/08:00am 20.9 16.1 -5.8 16 10.7 ENE 11 15 6 8 1016.5 1015.5 0.0
21/07:30am 17.1 12.6 -6.7 19 9.0 E 9 11 5 6 1016.5 1015.5 0.0
21/07:00am 14.7 10.3 -5.6 24 7.7 E 9 15 5 8 1016.5 1015.5 0.0
21/06:30am 9.9 5.9 -7.3 29 5.9 NE 6 9 3 5 1016.1 1015.1 0.0
21/06:00am 9.7 6.1 -7.9 28 5.9 ESE 4 7 2 4 1016.0 1015.0 0.0
21/05:30am 10.1 6.9 -7.6 28 6.1 ESE 2 7 1 4 1015.6 1014.6 0.0
21/05:00am 10.6 6.6 -8.1 26 6.4 ENE 6 9 3 5 1015.5 1014.5 0.0
21/04:30am 10.9 6.7 -8.3 25 6.5 SE 7 9 4 5 1015.4 1014.4 0.0
21/04:00am 12.2 8.1 -8.9 22 7.2 ESE 6 6 3 3 1015.2 1014.2 0.0
21/03:30am 14.5 10.4 -8.8 19 8.2 SSE 6 9 3 5 1015.1 1014.1 0.0
21/03:00am 15.5 10.8 -8.7 18 8.6 SE 9 13 5 7 1015.0 1014.0 0.0
21/02:30am 16.3 10.9 -8.8 17 9.0 SE 13 15 7 8 1015.0 1014.0 0.0
21/02:00am 16.1 11.0 -8.9 17 9.0 SSE 11 13 6 7 1015.4 1014.4 0.0
21/01:30am 16.7 12.0 -9.2 16 9.3 SSE 9 13 5 7 1015.6 1014.6 0.0
21/01:00am 16.4 11.4 -8.7 17 9.1 SSE 11 13 6 7 1015.6 1014.6 0.0
21/12:30am 17.4 12.3 -9.5 15 9.7 SSE 11 15 6 8 1015.8 1014.8 0.0
21/12:00am 18.6 13.9 -9.4 14 10.2 S 9 13 5 7 1016.0 1015.0 0.0
 
Date/Time
EST
Temp
°C
App
Temp
°C
Dew
Point
°C
Rel
Hum
%
Delta-T
°C
Wind Press
QNH
hPa
Press
MSL
hPa
Rain since
9am
mm
Dir  Spd
km/h
Gust
km/h
Spd
kts
Gust
kts
20/11:30pm 19.5 14.5 -8.7 14 10.6 S 11 13 6 7 1016.0 1015.0 0.0
20/11:00pm 20.6 15.6 -8.7 13 11.1 S 11 15 6 8 1016.2 1015.2 0.0
20/10:30pm 20.5 15.4 -8.8 13 11.1 S 11 15 6 8 1016.2 1015.2 0.0
20/10:00pm 21.5 16.8 -9.1 12 11.6 S 9 13 5 7 1016.3 1015.3 0.0
20/09:30pm 21.3 16.2 -9.2 12 11.5 SSW 11 13 6 7 1016.2 1015.2 0.0
20/09:00pm 22.6 17.1 -9.3 11 12.2 SSW 13 15 7 8 1016.2 1015.2 0.0
20/08:30pm 22.8 17.3 -9.2 11 12.3 SW 13 17 7 9 1015.9 1014.9 0.0
20/08:00pm 22.8 17.8 -8.1 12 12.1 SW 11 15 6 8 1015.6 1014.6 0.0
20/07:30pm 22.1 17.5 -7.6 13 11.7 WSW 9 11 5 6 1015.4 1014.4 0.0
20/07:00pm 24.0 19.7 -9.5 10 13.0 WSW 7 9 4 5 1015.1 1014.1 0.0
20/06:30pm 26.8 22.7 -8.7 9 14.3 WSW 6 9 3 5 1014.6 1013.5 0.0
20/06:00pm 29.3 24.3 -8.3 8 15.7 SW 11 15 6 8 1014.3 1013.2 0.0
20/05:30pm 31.3 27.0 -8.6 7 16.8 W 7 15 4 8 1013.8 1012.8 0.0
20/05:00pm 31.7 25.6 -8.3 7 17.0 W 17 26 9 14 1013.7 1012.7 0.0
20/04:30pm 32.3 27.0 -7.8 7 17.3 WSW 13 28 7 15 1013.6 1012.6 0.0
20/04:00pm 32.6 26.5 -7.6 7 17.4 WSW 17 30 9 16 1013.6 1012.6 0.0
20/03:30pm 32.7 27.4 -7.6 7 17.5 W 13 26 7 14 1013.8 1012.8 0.0
20/03:00pm 32.5 26.8 -7.7 7 17.4 WNW 15 24 8 13 1014.3 1013.2 0.0
20/02:30pm 32.4 27.1 -7.8 7 17.3 W 13 39 7 21 1014.6 1013.5 0.0
20/02:00pm 32.7 27.2 -5.8 8 17.2 WNW 15 26 8 14 1015.1 1014.1 0.0
20/01:30pm 32.2 26.6 -6.2 8 17.0 WSW 15 22 8 12 1015.8 1014.8 0.0
20/01:00pm 31.9 27.2 -4.9 9 16.6 NW 11 20 6 11 1016.3 1015.3 0.0
20/12:30pm 31.6 27.3 -5.1 9 16.5 N 9 19 5 10 1017.0 1016.0 0.0
20/12:00pm 31.0 27.2 -5.5 9 16.2 E 6 13 3 7 1017.6 1016.6 0.0
20/11:30am 31.3 27.6 -2.6 11 15.8 WNW 7 13 4 7 1018.3 1017.3 0.0
20/11:00am 28.8 25.9 1.3 17 13.5 W 6 11 3 6 1018.9 1017.9 0.0
20/10:30am 27.2 23.8 1.6 19 12.5 WSW 9 13 5 7 1019.3 1018.3 0.0

Other Formats:

Comma delimited format used in spreadsheet applications
http://www.bom.gov.au/fwo/IDQ60801/IDQ60801.95351.axf

JavaScript Object Notation format (JSON) in row-major order
http://www.bom.gov.au/fwo/IDQ60801/IDQ60801.95351.json